Aviation Digital Data Service (ADDS)

Output produced by METARs form (1735 UTC 03 June 2020)
found at http://www.aviationweather.gov/metar/data/
 
METAR text: ZHCC 031700Z 20003MPS 150V230 CAVOK 29/06 Q1000 NOSIG
Conditions at: ZHCC (ZHENGZHOU , CN) observed 1700 UTC 03 June 2020
Temperature: 29.0°C (84°F)
Dewpoint: 6.0°C (43°F) [RH = 23%]
Pressure (altimeter): 29.53 inches Hg (1000.0 mb)
Winds: from the SSW (200 degrees) at 7 MPH (6 knots; 3.1 m/s)
Visibility: 6 or more miles (10+ km)
Ceiling: ceiling and visibility are OK
Clouds: unknown
Weather: no significant weather observed at this time

METAR text: ZHCC 031600Z VRB01MPS CAVOK 28/06 Q1000 NOSIG
Conditions at: ZHCC (ZHENGZHOU , CN) observed 1600 UTC 03 June 2020
Temperature: 28.0°C (82°F)
Dewpoint: 6.0°C (43°F) [RH = 25%]
Pressure (altimeter): 29.53 inches Hg (1000.0 mb)
Winds: variable direction winds at 2 MPH (2 knots; 1.0 m/s)
Visibility: 6 or more miles (10+ km)
Ceiling: ceiling and visibility are OK
Clouds: unknown
Weather: no significant weather observed at this time

METAR text: ZHCC 031500Z 22002MPS 180V250 CAVOK 30/05 Q1000 NOSIG
Conditions at: ZHCC (ZHENGZHOU , CN) observed 1500 UTC 03 June 2020
Temperature: 30.0°C (86°F)
Dewpoint: 5.0°C (41°F) [RH = 21%]
Pressure (altimeter): 29.53 inches Hg (1000.0 mb)
Winds: from the SW (220 degrees) at 5 MPH (4 knots; 2.1 m/s)
Visibility: 6 or more miles (10+ km)
Ceiling: ceiling and visibility are OK
Clouds: unknown
Weather: no significant weather observed at this time

METAR text: ZHCC 031400Z 18002MPS 120V220 CAVOK 30/04 Q1000 NOSIG
Conditions at: ZHCC (ZHENGZHOU , CN) observed 1400 UTC 03 June 2020
Temperature: 30.0°C (86°F)
Dewpoint: 4.0°C (39°F) [RH = 19%]
Pressure (altimeter): 29.53 inches Hg (1000.0 mb)
Winds: from the S (180 degrees) at 5 MPH (4 knots; 2.1 m/s)
Visibility: 6 or more miles (10+ km)
Ceiling: ceiling and visibility are OK
Clouds: unknown
Weather: no significant weather observed at this time

METAR text: ZHCC 031300Z VRB01MPS CAVOK 31/04 Q1000 NOSIG
Conditions at: ZHCC (ZHENGZHOU , CN) observed 1300 UTC 03 June 2020
Temperature: 31.0°C (88°F)
Dewpoint: 4.0°C (39°F) [RH = 18%]
Pressure (altimeter): 29.53 inches Hg (1000.0 mb)
Winds: variable direction winds at 2 MPH (2 knots; 1.0 m/s)
Visibility: 6 or more miles (10+ km)
Ceiling: ceiling and visibility are OK
Clouds: unknown
Weather: no significant weather observed at this time

METAR text: ZHCC 031200Z 15002MPS 090V210 CAVOK 32/04 Q0999 NOSIG
Conditions at: ZHCC (ZHENGZHOU , CN) observed 1200 UTC 03 June 2020
Temperature: 32.0°C (90°F)
Dewpoint: 4.0°C (39°F) [RH = 17%]
Pressure (altimeter): 29.50 inches Hg (999.0 mb)
Winds: from the SSE (150 degrees) at 5 MPH (4 knots; 2.1 m/s)
Visibility: 6 or more miles (10+ km)
Ceiling: ceiling and visibility are OK
Clouds: unknown
Weather: no significant weather observed at this time

METAR text: ZHCC 031100Z 14002MPS 110V170 CAVOK 35/06 Q0998 NOSIG
Conditions at: ZHCC (ZHENGZHOU , CN) observed 1100 UTC 03 June 2020
Temperature: 35.0°C (95°F)
Dewpoint: 6.0°C (43°F) [RH = 17%]
Pressure (altimeter): 29.47 inches Hg (998.0 mb)
Winds: from the SE (140 degrees) at 5 MPH (4 knots; 2.1 m/s)
Visibility: 6 or more miles (10+ km)
Ceiling: ceiling and visibility are OK
Clouds: unknown
Weather: no significant weather observed at this time

METAR text: ZHCC 031000Z 14002MPS 100V190 CAVOK 37/06 Q0998 NOSIG
Conditions at: ZHCC (ZHENGZHOU , CN) observed 1000 UTC 03 June 2020
Temperature: 37.0°C (99°F)
Dewpoint: 6.0°C (43°F) [RH = 15%]
Pressure (altimeter): 29.47 inches Hg (998.0 mb)
Winds: from the SE (140 degrees) at 5 MPH (4 knots; 2.1 m/s)
Visibility: 6 or more miles (10+ km)
Ceiling: ceiling and visibility are OK
Clouds: unknown
Weather: no significant weather observed at this time

METAR text: ZHCC 030900Z 17003MPS 100V240 CAVOK 38/04 Q0998 NOSIG
Conditions at: ZHCC (ZHENGZHOU , CN) observed 0900 UTC 03 June 2020
Temperature: 38.0°C (100°F)
Dewpoint: 4.0°C (39°F) [RH = 12%]
Pressure (altimeter): 29.47 inches Hg (998.0 mb)
Winds: from the S (170 degrees) at 7 MPH (6 knots; 3.1 m/s)
Visibility: 6 or more miles (10+ km)
Ceiling: ceiling and visibility are OK
Clouds: unknown
Weather: no significant weather observed at this time

METAR text: ZHCC 030800Z VRB02MPS CAVOK 39/04 Q0998 NOSIG
Conditions at: ZHCC (ZHENGZHOU , CN) observed 0800 UTC 03 June 2020
Temperature: 39.0°C (102°F)
Dewpoint: 4.0°C (39°F) [RH = 12%]
Pressure (altimeter): 29.47 inches Hg (998.0 mb)
Winds: variable direction winds at 5 MPH (4 knots; 2.1 m/s)
Visibility: 6 or more miles (10+ km)
Ceiling: ceiling and visibility are OK
Clouds: unknown
Weather: no significant weather observed at this time

METAR text: ZHCC 030700Z VRB02MPS CAVOK 38/03 Q0999 NOSIG
Conditions at: ZHCC (ZHENGZHOU , CN) observed 0700 UTC 03 June 2020
Temperature: 38.0°C (100°F)
Dewpoint: 3.0°C (37°F) [RH = 11%]
Pressure (altimeter): 29.50 inches Hg (999.0 mb)
Winds: variable direction winds at 5 MPH (4 knots; 2.1 m/s)
Visibility: 6 or more miles (10+ km)
Ceiling: ceiling and visibility are OK
Clouds: unknown
Weather: no significant weather observed at this time

METAR text: ZHCC 030600Z VRB02MPS CAVOK 39/03 Q1000 NOSIG
Conditions at: ZHCC (ZHENGZHOU , CN) observed 0600 UTC 03 June 2020
Temperature: 39.0°C (102°F)
Dewpoint: 3.0°C (37°F) [RH = 11%]
Pressure (altimeter): 29.53 inches Hg (1000.0 mb)
Winds: variable direction winds at 5 MPH (4 knots; 2.1 m/s)
Visibility: 6 or more miles (10+ km)
Ceiling: ceiling and visibility are OK
Clouds: unknown
Weather: no significant weather observed at this time

METAR text: ZHCC 030500Z 34003MPS 270V060 CAVOK 38/04 Q1000 NOSIG
Conditions at: ZHCC (ZHENGZHOU , CN) observed 0500 UTC 03 June 2020
Temperature: 38.0°C (100°F)
Dewpoint: 4.0°C (39°F) [RH = 12%]
Pressure (altimeter): 29.53 inches Hg (1000.0 mb)
Winds: from the NNW (340 degrees) at 7 MPH (6 knots; 3.1 m/s)
Visibility: 6 or more miles (10+ km)
Ceiling: ceiling and visibility are OK
Clouds: unknown
Weather: no significant weather observed at this time

METAR text: ZHCC 030400Z 34002MPS 240V040 CAVOK 37/07 Q1001 NOSIG
Conditions at: ZHCC (ZHENGZHOU , CN) observed 0400 UTC 03 June 2020
Temperature: 37.0°C (99°F)
Dewpoint: 7.0°C (45°F) [RH = 16%]
Pressure (altimeter): 29.56 inches Hg (1001.0 mb)
Winds: from the NNW (340 degrees) at 5 MPH (4 knots; 2.1 m/s)
Visibility: 6 or more miles (10+ km)
Ceiling: ceiling and visibility are OK
Clouds: unknown
Weather: no significant weather observed at this time

METAR text: ZHCC 030300Z 19002MPS 130V250 CAVOK 34/07 Q1002 NOSIG
Conditions at: ZHCC (ZHENGZHOU , CN) observed 0300 UTC 03 June 2020
Temperature: 34.0°C (93°F)
Dewpoint: 7.0°C (45°F) [RH = 19%]
Pressure (altimeter): 29.59 inches Hg (1002.0 mb)
Winds: from the S (190 degrees) at 5 MPH (4 knots; 2.1 m/s)
Visibility: 6 or more miles (10+ km)
Ceiling: ceiling and visibility are OK
Clouds: unknown
Weather: no significant weather observed at this time

METAR text: ZHCC 030200Z 20002MPS 130V280 CAVOK 33/07 Q1002 NOSIG
Conditions at: ZHCC (ZHENGZHOU , CN) observed 0200 UTC 03 June 2020
Temperature: 33.0°C (91°F)
Dewpoint: 7.0°C (45°F) [RH = 20%]
Pressure (altimeter): 29.59 inches Hg (1002.0 mb)
Winds: from the SSW (200 degrees) at 5 MPH (4 knots; 2.1 m/s)
Visibility: 6 or more miles (10+ km)
Ceiling: ceiling and visibility are OK
Clouds: unknown
Weather: no significant weather observed at this time

METAR text: ZHCC 030100Z 23002MPS 190V270 CAVOK 31/07 Q1003 NOSIG
Conditions at: ZHCC (ZHENGZHOU , CN) observed 0100 UTC 03 June 2020
Temperature: 31.0°C (88°F)
Dewpoint: 7.0°C (45°F) [RH = 22%]
Pressure (altimeter): 29.62 inches Hg (1003.0 mb)
Winds: from the SW (230 degrees) at 5 MPH (4 knots; 2.1 m/s)
Visibility: 6 or more miles (10+ km)
Ceiling: ceiling and visibility are OK
Clouds: unknown
Weather: no significant weather observed at this time

METAR text: ZHCC 030000Z 26003MPS 220V280 CAVOK 28/08 Q1003 NOSIG
Conditions at: ZHCC (ZHENGZHOU , CN) observed 0000 UTC 03 June 2020
Temperature: 28.0°C (82°F)
Dewpoint: 8.0°C (46°F) [RH = 28%]
Pressure (altimeter): 29.62 inches Hg (1003.0 mb)
Winds: from the W (260 degrees) at 7 MPH (6 knots; 3.1 m/s)
Visibility: 6 or more miles (10+ km)
Ceiling: ceiling and visibility are OK
Clouds: unknown
Weather: no significant weather observed at this time

METAR text: ZHCC 022300Z VRB01MPS CAVOK 25/09 Q1003 NOSIG
Conditions at: ZHCC (ZHENGZHOU , CN) observed 2300 UTC 02 June 2020
Temperature: 25.0°C (77°F)
Dewpoint: 9.0°C (48°F) [RH = 36%]
Pressure (altimeter): 29.62 inches Hg (1003.0 mb)
Winds: variable direction winds at 2 MPH (2 knots; 1.0 m/s)
Visibility: 6 or more miles (10+ km)
Ceiling: ceiling and visibility are OK
Clouds: unknown
Weather: no significant weather observed at this time

METAR text: ZHCC 022200Z 25002MPS CAVOK 22/09 Q1002 NOSIG
Conditions at: ZHCC (ZHENGZHOU , CN) observed 2200 UTC 02 June 2020
Temperature: 22.0°C (72°F)
Dewpoint: 9.0°C (48°F) [RH = 43%]
Pressure (altimeter): 29.59 inches Hg (1002.0 mb)
Winds: from the WSW (250 degrees) at 5 MPH (4 knots; 2.1 m/s)
Visibility: 6 or more miles (10+ km)
Ceiling: ceiling and visibility are OK
Clouds: unknown
Weather: no significant weather observed at this time

METAR text: ZHCC 022100Z VRB01MPS CAVOK 19/09 Q1002 NOSIG
Conditions at: ZHCC (ZHENGZHOU , CN) observed 2100 UTC 02 June 2020
Temperature: 19.0°C (66°F)
Dewpoint: 9.0°C (48°F) [RH = 52%]
Pressure (altimeter): 29.59 inches Hg (1002.0 mb)
Winds: variable direction winds at 2 MPH (2 knots; 1.0 m/s)
Visibility: 6 or more miles (10+ km)
Ceiling: ceiling and visibility are OK
Clouds: unknown
Weather: no significant weather observed at this time

METAR text: ZHCC 022000Z VRB01MPS CAVOK 20/09 Q1002 NOSIG
Conditions at: ZHCC (ZHENGZHOU , CN) observed 2000 UTC 02 June 2020
Temperature: 20.0°C (68°F)
Dewpoint: 9.0°C (48°F) [RH = 49%]
Pressure (altimeter): 29.59 inches Hg (1002.0 mb)
Winds: variable direction winds at 2 MPH (2 knots; 1.0 m/s)
Visibility: 6 or more miles (10+ km)
Ceiling: ceiling and visibility are OK
Clouds: unknown
Weather: no significant weather observed at this time

METAR text: ZHCC 021900Z 25002MPS CAVOK 23/09 Q1002 NOSIG
Conditions at: ZHCC (ZHENGZHOU , CN) observed 1900 UTC 02 June 2020
Temperature: 23.0°C (73°F)
Dewpoint: 9.0°C (48°F) [RH = 41%]
Pressure (altimeter): 29.59 inches Hg (1002.0 mb)
Winds: from the WSW (250 degrees) at 5 MPH (4 knots; 2.1 m/s)
Visibility: 6 or more miles (10+ km)
Ceiling: ceiling and visibility are OK
Clouds: unknown
Weather: no significant weather observed at this time

METAR text: ZHCC 021800Z 25002MPS CAVOK 23/09 Q1003 NOSIG
Conditions at: ZHCC (ZHENGZHOU , CN) observed 1800 UTC 02 June 2020
Temperature: 23.0°C (73°F)
Dewpoint: 9.0°C (48°F) [RH = 41%]
Pressure (altimeter): 29.62 inches Hg (1003.0 mb)
Winds: from the WSW (250 degrees) at 5 MPH (4 knots; 2.1 m/s)
Visibility: 6 or more miles (10+ km)
Ceiling: ceiling and visibility are OK
Clouds: unknown
Weather: no significant weather observed at this time

METAR text: ZHCC 021700Z 00000MPS CAVOK 19/10 Q1004 NOSIG
Conditions at: ZHCC (ZHENGZHOU , CN) observed 1700 UTC 02 June 2020
Temperature: 19.0°C (66°F)
Dewpoint: 10.0°C (50°F) [RH = 56%]
Pressure (altimeter): 29.65 inches Hg (1004.0 mb)
Winds: calm
Visibility: 6 or more miles (10+ km)
Ceiling: ceiling and visibility are OK
Clouds: unknown
Weather: no significant weather observed at this time

METAR text: ZHCC 021600Z 19001MPS CAVOK 22/09 Q1004 NOSIG
Conditions at: ZHCC (ZHENGZHOU , CN) observed 1600 UTC 02 June 2020
Temperature: 22.0°C (72°F)
Dewpoint: 9.0°C (48°F) [RH = 43%]
Pressure (altimeter): 29.65 inches Hg (1004.0 mb)
Winds: from the S (190 degrees) at 2 MPH (2 knots; 1.0 m/s)
Visibility: 6 or more miles (10+ km)
Ceiling: ceiling and visibility are OK
Clouds: unknown
Weather: no significant weather observed at this time

METAR text: ZHCC 021500Z VRB01MPS CAVOK 24/09 Q1005 NOSIG
Conditions at: ZHCC (ZHENGZHOU , CN) observed 1500 UTC 02 June 2020
Temperature: 24.0°C (75°F)
Dewpoint: 9.0°C (48°F) [RH = 38%]
Pressure (altimeter): 29.68 inches Hg (1005.0 mb)
Winds: variable direction winds at 2 MPH (2 knots; 1.0 m/s)
Visibility: 6 or more miles (10+ km)
Ceiling: ceiling and visibility are OK
Clouds: unknown
Weather: no significant weather observed at this time

METAR text: ZHCC 021400Z 19002MPS 160V230 CAVOK 27/09 Q1004 NOSIG
Conditions at: ZHCC (ZHENGZHOU , CN) observed 1400 UTC 02 June 2020
Temperature: 27.0°C (81°F)
Dewpoint: 9.0°C (48°F) [RH = 32%]
Pressure (altimeter): 29.65 inches Hg (1004.0 mb)
Winds: from the S (190 degrees) at 5 MPH (4 knots; 2.1 m/s)
Visibility: 6 or more miles (10+ km)
Ceiling: ceiling and visibility are OK
Clouds: unknown
Weather: no significant weather observed at this time

METAR text: ZHCC 021300Z 20002MPS 160V240 CAVOK 27/09 Q1004 NOSIG
Conditions at: ZHCC (ZHENGZHOU , CN) observed 1300 UTC 02 June 2020
Temperature: 27.0°C (81°F)
Dewpoint: 9.0°C (48°F) [RH = 32%]
Pressure (altimeter): 29.65 inches Hg (1004.0 mb)
Winds: from the SSW (200 degrees) at 5 MPH (4 knots; 2.1 m/s)
Visibility: 6 or more miles (10+ km)
Ceiling: ceiling and visibility are OK
Clouds: unknown
Weather: no significant weather observed at this time

METAR text: ZHCC 021200Z 19002MPS 150V240 CAVOK 29/10 Q1003 NOSIG
Conditions at: ZHCC (ZHENGZHOU , CN) observed 1200 UTC 02 June 2020
Temperature: 29.0°C (84°F)
Dewpoint: 10.0°C (50°F) [RH = 31%]
Pressure (altimeter): 29.62 inches Hg (1003.0 mb)
Winds: from the S (190 degrees) at 5 MPH (4 knots; 2.1 m/s)
Visibility: 6 or more miles (10+ km)
Ceiling: ceiling and visibility are OK
Clouds: unknown
Weather: no significant weather observed at this time

METAR text: ZHCC 021100Z 18003MPS 130V220 CAVOK 30/09 Q1003 NOSIG
Conditions at: ZHCC (ZHENGZHOU , CN) observed 1100 UTC 02 June 2020
Temperature: 30.0°C (86°F)
Dewpoint: 9.0°C (48°F) [RH = 27%]
Pressure (altimeter): 29.62 inches Hg (1003.0 mb)
Winds: from the S (180 degrees) at 7 MPH (6 knots; 3.1 m/s)
Visibility: 6 or more miles (10+ km)
Ceiling: ceiling and visibility are OK
Clouds: unknown
Weather: no significant weather observed at this time

METAR text: ZHCC 021000Z 17002MPS 100V230 CAVOK 31/08 Q1003 NOSIG
Conditions at: ZHCC (ZHENGZHOU , CN) observed 1000 UTC 02 June 2020
Temperature: 31.0°C (88°F)
Dewpoint: 8.0°C (46°F) [RH = 24%]
Pressure (altimeter): 29.62 inches Hg (1003.0 mb)
Winds: from the S (170 degrees) at 5 MPH (4 knots; 2.1 m/s)
Visibility: 6 or more miles (10+ km)
Ceiling: ceiling and visibility are OK
Clouds: unknown
Weather: no significant weather observed at this time

METAR text: ZHCC 020900Z 15002MPS 080V200 CAVOK 32/06 Q1003 NOSIG
Conditions at: ZHCC (ZHENGZHOU , CN) observed 0900 UTC 02 June 2020
Temperature: 32.0°C (90°F)
Dewpoint: 6.0°C (43°F) [RH = 20%]
Pressure (altimeter): 29.62 inches Hg (1003.0 mb)
Winds: from the SSE (150 degrees) at 5 MPH (4 knots; 2.1 m/s)
Visibility: 6 or more miles (10+ km)
Ceiling: ceiling and visibility are OK
Clouds: unknown
Weather: no significant weather observed at this time

METAR text: ZHCC 020800Z 14002MPS 100V210 CAVOK 33/05 Q1003 NOSIG
Conditions at: ZHCC (ZHENGZHOU , CN) observed 0800 UTC 02 June 2020
Temperature: 33.0°C (91°F)
Dewpoint: 5.0°C (41°F) [RH = 17%]
Pressure (altimeter): 29.62 inches Hg (1003.0 mb)
Winds: from the SE (140 degrees) at 5 MPH (4 knots; 2.1 m/s)
Visibility: 6 or more miles (10+ km)
Ceiling: ceiling and visibility are OK
Clouds: unknown
Weather: no significant weather observed at this time

METAR text: ZHCC 020700Z VRB01MPS CAVOK 34/06 Q1004 NOSIG
Conditions at: ZHCC (ZHENGZHOU , CN) observed 0700 UTC 02 June 2020
Temperature: 34.0°C (93°F)
Dewpoint: 6.0°C (43°F) [RH = 18%]
Pressure (altimeter): 29.65 inches Hg (1004.0 mb)
Winds: variable direction winds at 2 MPH (2 knots; 1.0 m/s)
Visibility: 6 or more miles (10+ km)
Ceiling: ceiling and visibility are OK
Clouds: unknown
Weather: no significant weather observed at this time

METAR text: ZHCC 020600Z 28002MPS 240V330 CAVOK 33/06 Q1004 NOSIG
Conditions at: ZHCC (ZHENGZHOU , CN) observed 0600 UTC 02 June 2020
Temperature: 33.0°C (91°F)
Dewpoint: 6.0°C (43°F) [RH = 19%]
Pressure (altimeter): 29.65 inches Hg (1004.0 mb)
Winds: from the W (280 degrees) at 5 MPH (4 knots; 2.1 m/s)
Visibility: 6 or more miles (10+ km)
Ceiling: ceiling and visibility are OK
Clouds: unknown
Weather: no significant weather observed at this time

Forecast for: ZHCC (ZHENGZHOU , CN)
Text: TAF ZHCC 031502Z 0318/0418 18003MPS 7000 NSC TX40/0407Z TN23/0322Z
Forecast period: 1800 UTC 03 June 2020 to 1800 UTC 04 June 2020
Forecast type: FROM: standard forecast or significant change
Winds: from the S (180 degrees) at 7 MPH (6 knots; 3.1 m/s)
Visibility: 4 miles (7 km)
Ceiling: unknown
Clouds: missing
Weather: no significant weather forecast for this period